Terminal Aerodrome Forecast
Issued by NWS

Home | Current Version | Previous Version | Text Only | Print | Product List | Glossary On
Versions: 1 2 3 4 5 6 7 8 9 10 11 12 13 14 15 16 17 18 19 20
000
FTUS42 KJAX 221905 AAA
TAFVQQ
TAF AMD
KVQQ 221905Z 2219/2318 VRB06KT P6SM VCTS BKN050CB
      TEMPO 2220/2224 VRB15G25KT 2SM +TSRA BKN025CB
     FM230200 19005KT P6SM SCT035 BKN250
     FM231300 22010KT P6SM BKN035=

USA.gov is the U.S. government's official web portal to all federal, state and local government web resources and services.